sensor_id;sensor_type;location;lat;lon;timestamp;temperature;humidity
2300;DHT22;1158;48.750;9.078;2023-03-23T00:00:47;11.20;99.90
2300;DHT22;1158;48.750;9.078;2023-03-23T00:03:15;11.30;99.90
2300;DHT22;1158;48.750;9.078;2023-03-23T00:05:42;11.40;99.90
2300;DHT22;1158;48.750;9.078;2023-03-23T00:08:17;11.50;99.90
2300;DHT22;1158;48.750;9.078;2023-03-23T00:10:48;11.60;99.90
2300;DHT22;1158;48.750;9.078;2023-03-23T00:13:15;11.80;99.40
2300;DHT22;1158;48.750;9.078;2023-03-23T00:15:45;11.90;99.30
2300;DHT22;1158;48.750;9.078;2023-03-23T00:18:16;12.00;99.20
2300;DHT22;1158;48.750;9.078;2023-03-23T00:20:48;12.10;98.90
2300;DHT22;1158;48.750;9.078;2023-03-23T00:23:15;12.10;99.00
2300;DHT22;1158;48.750;9.078;2023-03-23T00:25:45;12.20;98.90
2300;DHT22;1158;48.750;9.078;2023-03-23T00:28:12;12.40;98.50
2300;DHT22;1158;48.750;9.078;2023-03-23T00:30:40;12.40;98.60
2300;DHT22;1158;48.750;9.078;2023-03-23T00:33:07;12.30;98.70
2300;DHT22;1158;48.750;9.078;2023-03-23T00:35:40;12.20;98.60
2300;DHT22;1158;48.750;9.078;2023-03-23T00:38:07;12.20;98.60
2300;DHT22;1158;48.750;9.078;2023-03-23T00:40:34;12.20;98.50
2300;DHT22;1158;48.750;9.078;2023-03-23T00:43:02;12.10;98.60
2300;DHT22;1158;48.750;9.078;2023-03-23T00:45:30;12.20;98.50
2300;DHT22;1158;48.750;9.078;2023-03-23T00:47:57;12.20;98.40
2300;DHT22;1158;48.750;9.078;2023-03-23T00:50:28;12.10;98.40
2300;DHT22;1158;48.750;9.078;2023-03-23T00:52:56;12.20;98.40
2300;DHT22;1158;48.750;9.078;2023-03-23T00:55:23;12.20;98.40
2300;DHT22;1158;48.750;9.078;2023-03-23T00:57:50;12.20;98.00
2300;DHT22;1158;48.750;9.078;2023-03-23T01:00:18;12.30;98.00
2300;DHT22;1158;48.750;9.078;2023-03-23T01:02:45;12.30;98.10
2300;DHT22;1158;48.750;9.078;2023-03-23T01:05:12;12.30;97.70
2300;DHT22;1158;48.750;9.078;2023-03-23T01:07:40;12.30;97.80
2300;DHT22;1158;48.750;9.078;2023-03-23T01:10:08;12.40;97.70
2300;DHT22;1158;48.750;9.078;2023-03-23T01:12:37;12.40;97.70
2300;DHT22;1158;48.750;9.078;2023-03-23T01:15:05;12.30;97.60
2300;DHT22;1158;48.750;9.078;2023-03-23T01:17:33;12.40;97.40
2300;DHT22;1158;48.750;9.078;2023-03-23T01:20:00;12.50;97.20
2300;DHT22;1158;48.750;9.078;2023-03-23T01:22:26;12.50;97.50
2300;DHT22;1158;48.750;9.078;2023-03-23T01:24:53;12.50;97.30
2300;DHT22;1158;48.750;9.078;2023-03-23T01:27:21;12.60;97.10
2300;DHT22;1158;48.750;9.078;2023-03-23T01:29:48;12.50;97.30
2300;DHT22;1158;48.750;9.078;2023-03-23T01:32:15;12.50;97.30
2300;DHT22;1158;48.750;9.078;2023-03-23T01:34:42;12.50;97.20
2300;DHT22;1158;48.750;9.078;2023-03-23T01:37:09;12.50;97.10
2300;DHT22;1158;48.750;9.078;2023-03-23T01:39:36;12.50;97.10
2300;DHT22;1158;48.750;9.078;2023-03-23T01:42:03;12.40;97.10
2300;DHT22;1158;48.750;9.078;2023-03-23T01:47:35;12.50;96.90
2300;DHT22;1158;48.750;9.078;2023-03-23T01:50:03;12.50;96.70
2300;DHT22;1158;48.750;9.078;2023-03-23T01:52:30;12.50;96.60
2300;DHT22;1158;48.750;9.078;2023-03-23T01:54:57;12.50;96.60
2300;DHT22;1158;48.750;9.078;2023-03-23T01:57:25;12.40;96.60
2300;DHT22;1158;48.750;9.078;2023-03-23T01:59:54;12.40;96.50
2300;DHT22;1158;48.750;9.078;2023-03-23T02:02:25;12.40;96.80
2300;DHT22;1158;48.750;9.078;2023-03-23T02:04:57;12.40;96.60
2300;DHT22;1158;48.750;9.078;2023-03-23T02:07:25;12.30;96.50
2300;DHT22;1158;48.750;9.078;2023-03-23T02:09:52;12.30;96.70
2300;DHT22;1158;48.750;9.078;2023-03-23T02:12:19;12.30;96.80
2300;DHT22;1158;48.750;9.078;2023-03-23T02:14:46;12.30;96.90
2300;DHT22;1158;48.750;9.078;2023-03-23T02:17:17;12.30;97.20
2300;DHT22;1158;48.750;9.078;2023-03-23T02:20:05;12.30;96.90
2300;DHT22;1158;48.750;9.078;2023-03-23T02:23:01;12.30;97.00
2300;DHT22;1158;48.750;9.078;2023-03-23T02:25:49;12.40;97.20
2300;DHT22;1158;48.750;9.078;2023-03-23T02:28:41;12.30;97.40
2300;DHT22;1158;48.750;9.078;2023-03-23T02:31:23;12.30;97.40
2300;DHT22;1158;48.750;9.078;2023-03-23T02:33:58;12.30;97.60
2300;DHT22;1158;48.750;9.078;2023-03-23T02:36:32;12.30;97.60
2300;DHT22;1158;48.750;9.078;2023-03-23T02:39:05;12.40;97.70
2300;DHT22;1158;48.750;9.078;2023-03-23T02:41:39;12.30;97.70
2300;DHT22;1158;48.750;9.078;2023-03-23T02:44:07;12.20;97.80
2300;DHT22;1158;48.750;9.078;2023-03-23T02:46:35;12.10;97.90
2300;DHT22;1158;48.750;9.078;2023-03-23T02:49:05;12.10;97.90
2300;DHT22;1158;48.750;9.078;2023-03-23T02:51:34;12.00;98.10
2300;DHT22;1158;48.750;9.078;2023-03-23T02:54:05;12.00;98.20
2300;DHT22;1158;48.750;9.078;2023-03-23T02:56:32;12.00;98.10
2300;DHT22;1158;48.750;9.078;2023-03-23T02:59:01;12.00;98.00
2300;DHT22;1158;48.750;9.078;2023-03-23T03:01:56;12.00;97.90
2300;DHT22;1158;48.750;9.078;2023-03-23T03:04:26;12.00;98.00
2300;DHT22;1158;48.750;9.078;2023-03-23T03:07:12;12.00;98.10
2300;DHT22;1158;48.750;9.078;2023-03-23T03:09:47;12.00;98.30
2300;DHT22;1158;48.750;9.078;2023-03-23T03:12:20;12.00;97.90
2300;DHT22;1158;48.750;9.078;2023-03-23T03:14:54;12.00;97.90
2300;DHT22;1158;48.750;9.078;2023-03-23T03:17:26;12.10;97.70
2300;DHT22;1158;48.750;9.078;2023-03-23T03:19:56;12.10;97.70
2300;DHT22;1158;48.750;9.078;2023-03-23T03:22:25;12.10;97.60
2300;DHT22;1158;48.750;9.078;2023-03-23T03:24:56;12.30;97.50
2300;DHT22;1158;48.750;9.078;2023-03-23T03:27:25;12.20;97.50
2300;DHT22;1158;48.750;9.078;2023-03-23T03:29:56;12.30;97.50
2300;DHT22;1158;48.750;9.078;2023-03-23T03:32:28;12.30;97.50
2300;DHT22;1158;48.750;9.078;2023-03-23T03:35:00;12.40;97.40
2300;DHT22;1158;48.750;9.078;2023-03-23T03:37:33;12.30;97.40
2300;DHT22;1158;48.750;9.078;2023-03-23T03:40:04;12.30;97.40
2300;DHT22;1158;48.750;9.078;2023-03-23T03:42:36;12.30;97.40
2300;DHT22;1158;48.750;9.078;2023-03-23T03:45:03;12.30;97.50
2300;DHT22;1158;48.750;9.078;2023-03-23T03:47:31;12.30;97.40
2300;DHT22;1158;48.750;9.078;2023-03-23T03:49:57;12.40;97.50
2300;DHT22;1158;48.750;9.078;2023-03-23T03:52:26;12.40;97.50
2300;DHT22;1158;48.750;9.078;2023-03-23T03:54:52;12.40;97.40
2300;DHT22;1158;48.750;9.078;2023-03-23T03:57:19;12.50;97.50
2300;DHT22;1158;48.750;9.078;2023-03-23T03:59:46;12.50;97.40
2300;DHT22;1158;48.750;9.078;2023-03-23T04:02:13;12.50;97.50
2300;DHT22;1158;48.750;9.078;2023-03-23T04:04:45;12.50;97.60
2300;DHT22;1158;48.750;9.078;2023-03-23T04:07:12;12.60;97.50
2300;DHT22;1158;48.750;9.078;2023-03-23T04:09:43;12.60;97.40
2300;DHT22;1158;48.750;9.078;2023-03-23T04:12:12;12.70;97.40
2300;DHT22;1158;48.750;9.078;2023-03-23T04:14:38;12.60;97.40
2300;DHT22;1158;48.750;9.078;2023-03-23T04:17:05;12.50;97.50
2300;DHT22;1158;48.750;9.078;2023-03-23T04:19:32;12.60;97.60
2300;DHT22;1158;48.750;9.078;2023-03-23T04:21:59;12.60;97.60
2300;DHT22;1158;48.750;9.078;2023-03-23T04:24:26;12.50;97.60
2300;DHT22;1158;48.750;9.078;2023-03-23T04:26:58;12.40;97.80
2300;DHT22;1158;48.750;9.078;2023-03-23T04:29:24;12.40;97.70
2300;DHT22;1158;48.750;9.078;2023-03-23T04:31:52;12.40;97.90
2300;DHT22;1158;48.750;9.078;2023-03-23T04:34:21;12.40;97.80
2300;DHT22;1158;48.750;9.078;2023-03-23T04:36:49;12.40;97.90
2300;DHT22;1158;48.750;9.078;2023-03-23T04:39:15;12.40;97.70
2300;DHT22;1158;48.750;9.078;2023-03-23T04:41:43;12.50;97.70
2300;DHT22;1158;48.750;9.078;2023-03-23T04:44:12;12.40;97.70
2300;DHT22;1158;48.750;9.078;2023-03-23T04:46:43;12.40;97.70
2300;DHT22;1158;48.750;9.078;2023-03-23T04:49:15;12.40;97.80
2300;DHT22;1158;48.750;9.078;2023-03-23T04:51:46;12.50;97.70
2300;DHT22;1158;48.750;9.078;2023-03-23T04:54:13;12.60;97.50
2300;DHT22;1158;48.750;9.078;2023-03-23T04:56:40;12.60;97.50
2300;DHT22;1158;48.750;9.078;2023-03-23T04:59:07;12.60;97.60
2300;DHT22;1158;48.750;9.078;2023-03-23T05:01:35;12.50;97.50
2300;DHT22;1158;48.750;9.078;2023-03-23T05:04:04;12.60;97.40
2300;DHT22;1158;48.750;9.078;2023-03-23T05:06:31;12.60;97.40
2300;DHT22;1158;48.750;9.078;2023-03-23T05:08:57;12.60;97.30
2300;DHT22;1158;48.750;9.078;2023-03-23T05:11:24;12.70;97.30
2300;DHT22;1158;48.750;9.078;2023-03-23T05:13:52;12.70;97.30
2300;DHT22;1158;48.750;9.078;2023-03-23T05:16:19;12.70;97.30
2300;DHT22;1158;48.750;9.078;2023-03-23T05:18:47;12.80;97.30
2300;DHT22;1158;48.750;9.078;2023-03-23T05:21:13;12.80;97.20
2300;DHT22;1158;48.750;9.078;2023-03-23T05:23:41;12.70;97.10
2300;DHT22;1158;48.750;9.078;2023-03-23T05:26:07;12.80;97.10
2300;DHT22;1158;48.750;9.078;2023-03-23T05:28:34;12.70;97.20
2300;DHT22;1158;48.750;9.078;2023-03-23T05:31:01;12.70;97.20
2300;DHT22;1158;48.750;9.078;2023-03-23T05:33:28;12.70;97.20
2300;DHT22;1158;48.750;9.078;2023-03-23T05:35:56;12.70;97.20
2300;DHT22;1158;48.750;9.078;2023-03-23T05:38:23;12.70;97.40
2300;DHT22;1158;48.750;9.078;2023-03-23T05:40:50;12.70;97.30
2300;DHT22;1158;48.750;9.078;2023-03-23T05:43:17;12.70;97.30
2300;DHT22;1158;48.750;9.078;2023-03-23T05:45:44;12.60;97.20
2300;DHT22;1158;48.750;9.078;2023-03-23T05:48:11;12.60;97.50
2300;DHT22;1158;48.750;9.078;2023-03-23T05:50:37;12.50;97.60
2300;DHT22;1158;48.750;9.078;2023-03-23T05:53:06;12.50;97.70
2300;DHT22;1158;48.750;9.078;2023-03-23T05:55:33;12.50;97.60
2300;DHT22;1158;48.750;9.078;2023-03-23T05:58:00;12.50;97.60
2300;DHT22;1158;48.750;9.078;2023-03-23T06:00:27;12.50;97.70
2300;DHT22;1158;48.750;9.078;2023-03-23T06:02:56;12.60;97.70
2300;DHT22;1158;48.750;9.078;2023-03-23T06:05:23;12.60;97.90
2300;DHT22;1158;48.750;9.078;2023-03-23T06:07:51;12.60;97.90
2300;DHT22;1158;48.750;9.078;2023-03-23T06:10:20;12.50;98.00
2300;DHT22;1158;48.750;9.078;2023-03-23T06:12:47;12.60;98.30
2300;DHT22;1158;48.750;9.078;2023-03-23T06:15:14;12.50;98.20
2300;DHT22;1158;48.750;9.078;2023-03-23T06:17:40;12.50;98.00
2300;DHT22;1158;48.750;9.078;2023-03-23T06:20:08;12.50;98.20
2300;DHT22;1158;48.750;9.078;2023-03-23T06:22:36;12.50;98.30
2300;DHT22;1158;48.750;9.078;2023-03-23T06:25:04;12.50;98.10
2300;DHT22;1158;48.750;9.078;2023-03-23T06:27:32;12.50;98.20
2300;DHT22;1158;48.750;9.078;2023-03-23T06:30:00;12.60;98.20
2300;DHT22;1158;48.750;9.078;2023-03-23T06:32:30;12.60;98.30
2300;DHT22;1158;48.750;9.078;2023-03-23T06:34:58;12.70;98.10
2300;DHT22;1158;48.750;9.078;2023-03-23T06:37:31;12.60;98.20
2300;DHT22;1158;48.750;9.078;2023-03-23T06:39:58;12.60;98.20
2300;DHT22;1158;48.750;9.078;2023-03-23T06:42:26;12.60;98.30
2300;DHT22;1158;48.750;9.078;2023-03-23T06:44:54;12.60;98.40
2300;DHT22;1158;48.750;9.078;2023-03-23T06:47:22;12.70;98.50
2300;DHT22;1158;48.750;9.078;2023-03-23T06:49:49;12.80;98.10
2300;DHT22;1158;48.750;9.078;2023-03-23T06:52:16;13.00;98.00
2300;DHT22;1158;48.750;9.078;2023-03-23T06:54:43;13.20;97.90
2300;DHT22;1158;48.750;9.078;2023-03-23T06:57:10;13.30;97.60
2300;DHT22;1158;48.750;9.078;2023-03-23T06:59:36;13.50;97.30
2300;DHT22;1158;48.750;9.078;2023-03-23T07:02:05;13.60;97.30
2300;DHT22;1158;48.750;9.078;2023-03-23T07:04:32;13.70;97.20
2300;DHT22;1158;48.750;9.078;2023-03-23T07:06:58;13.70;97.10
2300;DHT22;1158;48.750;9.078;2023-03-23T07:09:25;13.70;97.10
2300;DHT22;1158;48.750;9.078;2023-03-23T07:11:52;13.70;97.10
2300;DHT22;1158;48.750;9.078;2023-03-23T07:14:19;13.60;97.00
2300;DHT22;1158;48.750;9.078;2023-03-23T07:16:47;13.70;96.90
2300;DHT22;1158;48.750;9.078;2023-03-23T07:19:15;13.70;96.90
2300;DHT22;1158;48.750;9.078;2023-03-23T07:21:42;13.70;96.80
2300;DHT22;1158;48.750;9.078;2023-03-23T07:24:11;13.60;97.10
2300;DHT22;1158;48.750;9.078;2023-03-23T07:26:39;13.50;97.00
2300;DHT22;1158;48.750;9.078;2023-03-23T07:29:06;13.50;97.20
2300;DHT22;1158;48.750;9.078;2023-03-23T07:31:33;13.50;97.20
2300;DHT22;1158;48.750;9.078;2023-03-23T07:33:59;13.50;97.20
2300;DHT22;1158;48.750;9.078;2023-03-23T07:36:28;13.60;97.10
2300;DHT22;1158;48.750;9.078;2023-03-23T07:38:55;13.60;97.10
2300;DHT22;1158;48.750;9.078;2023-03-23T07:41:21;13.70;97.40
2300;DHT22;1158;48.750;9.078;2023-03-23T07:43:48;13.80;97.20
2300;DHT22;1158;48.750;9.078;2023-03-23T07:46:15;13.80;97.40
2300;DHT22;1158;48.750;9.078;2023-03-23T07:48:42;13.90;97.50
2300;DHT22;1158;48.750;9.078;2023-03-23T07:51:09;14.10;97.40
2300;DHT22;1158;48.750;9.078;2023-03-23T07:53:37;14.30;97.30
2300;DHT22;1158;48.750;9.078;2023-03-23T07:56:04;14.50;97.30
2300;DHT22;1158;48.750;9.078;2023-03-23T07:58:31;14.70;97.10
2300;DHT22;1158;48.750;9.078;2023-03-23T08:00:58;14.60;97.10
2300;DHT22;1158;48.750;9.078;2023-03-23T08:03:25;14.60;97.50
2300;DHT22;1158;48.750;9.078;2023-03-23T08:05:51;14.60;97.40
2300;DHT22;1158;48.750;9.078;2023-03-23T08:08:18;14.60;97.60
2300;DHT22;1158;48.750;9.078;2023-03-23T08:10:46;14.60;97.80
2300;DHT22;1158;48.750;9.078;2023-03-23T08:13:13;14.50;98.00
2300;DHT22;1158;48.750;9.078;2023-03-23T08:15:40;14.50;98.30
2300;DHT22;1158;48.750;9.078;2023-03-23T08:18:07;14.40;98.50
2300;DHT22;1158;48.750;9.078;2023-03-23T08:20:34;14.40;98.70
2300;DHT22;1158;48.750;9.078;2023-03-23T08:23:01;14.50;98.80
2300;DHT22;1158;48.750;9.078;2023-03-23T08:25:29;14.60;99.10
2300;DHT22;1158;48.750;9.078;2023-03-23T08:27:59;14.80;98.70
2300;DHT22;1158;48.750;9.078;2023-03-23T08:30:27;14.90;98.70
2300;DHT22;1158;48.750;9.078;2023-03-23T08:32:57;15.10;98.60
2300;DHT22;1158;48.750;9.078;2023-03-23T08:35:25;14.90;98.90
2300;DHT22;1158;48.750;9.078;2023-03-23T08:37:52;14.80;99.00
2300;DHT22;1158;48.750;9.078;2023-03-23T08:40:21;14.70;99.20
2300;DHT22;1158;48.750;9.078;2023-03-23T08:42:50;14.70;99.40
2300;DHT22;1158;48.750;9.078;2023-03-23T08:45:20;14.80;99.20
2300;DHT22;1158;48.750;9.078;2023-03-23T08:47:48;14.60;99.40
2300;DHT22;1158;48.750;9.078;2023-03-23T08:50:18;14.60;99.50
2300;DHT22;1158;48.750;9.078;2023-03-23T08:52:46;14.60;99.60
2300;DHT22;1158;48.750;9.078;2023-03-23T08:55:13;14.70;99.60
2300;DHT22;1158;48.750;9.078;2023-03-23T08:57:40;14.80;99.60
2300;DHT22;1158;48.750;9.078;2023-03-23T09:00:12;14.90;99.60
2300;DHT22;1158;48.750;9.078;2023-03-23T09:02:45;15.00;99.40
2300;DHT22;1158;48.750;9.078;2023-03-23T09:05:13;15.20;99.20
2300;DHT22;1158;48.750;9.078;2023-03-23T09:07:41;15.30;99.10
2300;DHT22;1158;48.750;9.078;2023-03-23T09:10:09;15.30;98.90
2300;DHT22;1158;48.750;9.078;2023-03-23T09:12:36;15.40;99.00
2300;DHT22;1158;48.750;9.078;2023-03-23T09:15:04;15.40;98.80
2300;DHT22;1158;48.750;9.078;2023-03-23T09:17:35;15.40;99.10
2300;DHT22;1158;48.750;9.078;2023-03-23T09:20:05;15.50;99.10
2300;DHT22;1158;48.750;9.078;2023-03-23T09:22:36;15.60;98.60
2300;DHT22;1158;48.750;9.078;2023-03-23T09:25:04;15.50;98.50
2300;DHT22;1158;48.750;9.078;2023-03-23T09:27:31;15.50;98.90
2300;DHT22;1158;48.750;9.078;2023-03-23T09:29:58;15.40;98.70
2300;DHT22;1158;48.750;9.078;2023-03-23T09:32:26;15.30;98.70
2300;DHT22;1158;48.750;9.078;2023-03-23T09:34:53;15.20;98.80
2300;DHT22;1158;48.750;9.078;2023-03-23T09:37:23;15.30;99.00
2300;DHT22;1158;48.750;9.078;2023-03-23T09:39:49;15.30;98.80
2300;DHT22;1158;48.750;9.078;2023-03-23T09:42:29;15.00;99.00
2300;DHT22;1158;48.750;9.078;2023-03-23T09:45:06;15.00;99.30
2300;DHT22;1158;48.750;9.078;2023-03-23T09:47:41;15.10;99.20
2300;DHT22;1158;48.750;9.078;2023-03-23T09:50:12;15.20;99.20
2300;DHT22;1158;48.750;9.078;2023-03-23T09:52:44;15.30;99.00
2300;DHT22;1158;48.750;9.078;2023-03-23T09:55:15;15.50;98.90
2300;DHT22;1158;48.750;9.078;2023-03-23T09:57:47;15.80;98.90
2300;DHT22;1158;48.750;9.078;2023-03-23T10:00:19;15.70;98.70
2300;DHT22;1158;48.750;9.078;2023-03-23T10:02:52;16.00;98.40
2300;DHT22;1158;48.750;9.078;2023-03-23T10:05:31;16.10;98.30
2300;DHT22;1158;48.750;9.078;2023-03-23T10:08:02;16.10;98.20
2300;DHT22;1158;48.750;9.078;2023-03-23T10:10:45;16.80;98.00
2300;DHT22;1158;48.750;9.078;2023-03-23T10:13:19;16.90;97.70
2300;DHT22;1158;48.750;9.078;2023-03-23T10:15:47;17.40;96.80
2300;DHT22;1158;48.750;9.078;2023-03-23T10:18:19;17.50;96.90
2300;DHT22;1158;48.750;9.078;2023-03-23T10:20:50;17.70;96.80
2300;DHT22;1158;48.750;9.078;2023-03-23T10:23:46;17.70;96.50
2300;DHT22;1158;48.750;9.078;2023-03-23T10:26:24;17.50;96.50
2300;DHT22;1158;48.750;9.078;2023-03-23T10:28:57;17.10;97.30
2300;DHT22;1158;48.750;9.078;2023-03-23T10:31:29;16.80;97.40
2300;DHT22;1158;48.750;9.078;2023-03-23T10:34:01;16.60;97.70
2300;DHT22;1158;48.750;9.078;2023-03-23T10:36:33;16.60;98.00
2300;DHT22;1158;48.750;9.078;2023-03-23T10:39:06;16.60;98.00
2300;DHT22;1158;48.750;9.078;2023-03-23T10:41:37;16.40;98.10
2300;DHT22;1158;48.750;9.078;2023-03-23T10:44:10;16.30;98.70
2300;DHT22;1158;48.750;9.078;2023-03-23T10:46:44;16.70;98.30
2300;DHT22;1158;48.750;9.078;2023-03-23T10:49:18;17.40;98.00
2300;DHT22;1158;48.750;9.078;2023-03-23T10:51:52;17.80;96.90
2300;DHT22;1158;48.750;9.078;2023-03-23T10:54:32;18.40;97.00
2300;DHT22;1158;48.750;9.078;2023-03-23T10:57:12;19.00;95.80
2300;DHT22;1158;48.750;9.078;2023-03-23T10:59:40;18.90;96.40
2300;DHT22;1158;48.750;9.078;2023-03-23T11:02:20;18.80;96.20
2300;DHT22;1158;48.750;9.078;2023-03-23T11:05:03;18.60;96.00
2300;DHT22;1158;48.750;9.078;2023-03-23T11:07:33;18.40;96.10
2300;DHT22;1158;48.750;9.078;2023-03-23T11:10:26;18.50;96.00
2300;DHT22;1158;48.750;9.078;2023-03-23T11:12:56;18.00;96.10
2300;DHT22;1158;48.750;9.078;2023-03-23T11:15:29;17.30;96.60
2300;DHT22;1158;48.750;9.078;2023-03-23T11:17:58;16.70;97.30
2300;DHT22;1158;48.750;9.078;2023-03-23T11:20:26;17.00;97.50
2300;DHT22;1158;48.750;9.078;2023-03-23T11:22:54;17.10;97.60
2300;DHT22;1158;48.750;9.078;2023-03-23T11:25:22;17.10;97.00
2300;DHT22;1158;48.750;9.078;2023-03-23T11:27:50;17.10;97.30
2300;DHT22;1158;48.750;9.078;2023-03-23T11:30:23;16.70;97.50
2300;DHT22;1158;48.750;9.078;2023-03-23T11:32:51;16.50;97.70
2300;DHT22;1158;48.750;9.078;2023-03-23T11:35:21;16.80;97.70
2300;DHT22;1158;48.750;9.078;2023-03-23T11:37:51;17.40;97.50
2300;DHT22;1158;48.750;9.078;2023-03-23T11:40:22;17.70;97.00
2300;DHT22;1158;48.750;9.078;2023-03-23T11:42:57;18.00;96.90
2300;DHT22;1158;48.750;9.078;2023-03-23T11:45:32;17.90;96.30
2300;DHT22;1158;48.750;9.078;2023-03-23T11:48:06;17.80;97.10
2300;DHT22;1158;48.750;9.078;2023-03-23T11:50:44;18.20;96.40
2300;DHT22;1158;48.750;9.078;2023-03-23T11:53:15;18.30;96.50
2300;DHT22;1158;48.750;9.078;2023-03-23T11:58:42;17.80;95.00
2300;DHT22;1158;48.750;9.078;2023-03-23T12:01:16;17.70;95.30
2300;DHT22;1158;48.750;9.078;2023-03-23T12:04:02;17.80;95.60
2300;DHT22;1158;48.750;9.078;2023-03-23T12:06:36;17.60;95.70
2300;DHT22;1158;48.750;9.078;2023-03-23T12:09:19;17.50;95.70
2300;DHT22;1158;48.750;9.078;2023-03-23T12:11:56;17.50;95.80
2300;DHT22;1158;48.750;9.078;2023-03-23T12:14:31;17.30;95.70
2300;DHT22;1158;48.750;9.078;2023-03-23T12:17:09;17.10;95.60
2300;DHT22;1158;48.750;9.078;2023-03-23T12:19:43;17.30;95.80
2300;DHT22;1158;48.750;9.078;2023-03-23T12:22:19;17.30;95.60
2300;DHT22;1158;48.750;9.078;2023-03-23T12:24:57;17.20;95.00
2300;DHT22;1158;48.750;9.078;2023-03-23T12:27:31;17.10;95.20
2300;DHT22;1158;48.750;9.078;2023-03-23T12:30:20;17.30;95.30
2300;DHT22;1158;48.750;9.078;2023-03-23T12:33:04;17.10;95.30
2300;DHT22;1158;48.750;9.078;2023-03-23T12:35:39;17.20;95.50
2300;DHT22;1158;48.750;9.078;2023-03-23T12:38:28;17.00;95.80
2300;DHT22;1158;48.750;9.078;2023-03-23T12:41:05;16.90;96.00
2300;DHT22;1158;48.750;9.078;2023-03-23T12:43:40;17.50;95.60
2300;DHT22;1158;48.750;9.078;2023-03-23T12:46:28;17.90;95.70
2300;DHT22;1158;48.750;9.078;2023-03-23T12:49:00;18.30;95.40
2300;DHT22;1158;48.750;9.078;2023-03-23T12:51:33;18.50;95.00
2300;DHT22;1158;48.750;9.078;2023-03-23T12:54:12;18.80;94.80
2300;DHT22;1158;48.750;9.078;2023-03-23T12:56:48;18.90;94.50
2300;DHT22;1158;48.750;9.078;2023-03-23T12:59:23;18.40;94.90
2300;DHT22;1158;48.750;9.078;2023-03-23T13:01:56;17.80;95.20
2300;DHT22;1158;48.750;9.078;2023-03-23T13:04:27;17.70;95.50
2300;DHT22;1158;48.750;9.078;2023-03-23T13:06:57;17.90;95.30
2300;DHT22;1158;48.750;9.078;2023-03-23T13:09:30;18.40;94.90
2300;DHT22;1158;48.750;9.078;2023-03-23T13:12:00;18.50;95.10
2300;DHT22;1158;48.750;9.078;2023-03-23T13:14:37;18.60;94.60
2300;DHT22;1158;48.750;9.078;2023-03-23T13:17:22;18.40;94.70
2300;DHT22;1158;48.750;9.078;2023-03-23T13:20:04;18.00;95.10
2300;DHT22;1158;48.750;9.078;2023-03-23T13:22:42;18.00;95.20
2300;DHT22;1158;48.750;9.078;2023-03-23T13:25:18;17.90;95.50
2300;DHT22;1158;48.750;9.078;2023-03-23T13:27:56;17.80;95.40
2300;DHT22;1158;48.750;9.078;2023-03-23T13:30:26;18.10;95.40
2300;DHT22;1158;48.750;9.078;2023-03-23T13:33:02;18.60;95.90
2300;DHT22;1158;48.750;9.078;2023-03-23T13:35:34;19.10;95.00
2300;DHT22;1158;48.750;9.078;2023-03-23T13:38:01;18.90;94.20
2300;DHT22;1158;48.750;9.078;2023-03-23T13:40:42;18.70;94.50
2300;DHT22;1158;48.750;9.078;2023-03-23T13:43:09;18.50;94.00
2300;DHT22;1158;48.750;9.078;2023-03-23T13:45:47;18.10;94.40
2300;DHT22;1158;48.750;9.078;2023-03-23T13:48:24;18.10;94.50
2300;DHT22;1158;48.750;9.078;2023-03-23T13:50:55;18.10;94.10
2300;DHT22;1158;48.750;9.078;2023-03-23T13:53:25;18.10;94.40
2300;DHT22;1158;48.750;9.078;2023-03-23T13:56:06;18.10;94.10
2300;DHT22;1158;48.750;9.078;2023-03-23T13:58:44;17.80;94.40
2300;DHT22;1158;48.750;9.078;2023-03-23T14:01:16;17.60;94.60
2300;DHT22;1158;48.750;9.078;2023-03-23T14:03:46;17.50;94.90
2300;DHT22;1158;48.750;9.078;2023-03-23T14:06:18;17.40;95.00
2300;DHT22;1158;48.750;9.078;2023-03-23T14:08:48;17.30;94.80
2300;DHT22;1158;48.750;9.078;2023-03-23T14:11:20;17.40;95.10
2300;DHT22;1158;48.750;9.078;2023-03-23T14:13:58;17.30;95.10
2300;DHT22;1158;48.750;9.078;2023-03-23T14:16:35;17.50;95.00
2300;DHT22;1158;48.750;9.078;2023-03-23T14:19:04;17.50;95.00
2300;DHT22;1158;48.750;9.078;2023-03-23T14:21:41;17.60;94.60
2300;DHT22;1158;48.750;9.078;2023-03-23T14:24:11;17.60;94.70
2300;DHT22;1158;48.750;9.078;2023-03-23T14:26:39;17.50;94.40
2300;DHT22;1158;48.750;9.078;2023-03-23T14:29:06;17.30;94.80
2300;DHT22;1158;48.750;9.078;2023-03-23T14:31:35;17.20;94.40
2300;DHT22;1158;48.750;9.078;2023-03-23T14:34:04;17.20;94.30
2300;DHT22;1158;48.750;9.078;2023-03-23T14:36:35;17.20;93.80
2300;DHT22;1158;48.750;9.078;2023-03-23T14:39:14;17.10;94.20
2300;DHT22;1158;48.750;9.078;2023-03-23T14:41:41;17.10;94.30
2300;DHT22;1158;48.750;9.078;2023-03-23T14:44:16;17.20;94.20
2300;DHT22;1158;48.750;9.078;2023-03-23T14:46:45;17.30;94.40
2300;DHT22;1158;48.750;9.078;2023-03-23T14:49:14;17.40;94.10
2300;DHT22;1158;48.750;9.078;2023-03-23T14:51:48;17.50;94.00
2300;DHT22;1158;48.750;9.078;2023-03-23T14:54:15;17.50;94.10
2300;DHT22;1158;48.750;9.078;2023-03-23T14:56:42;17.60;93.90
2300;DHT22;1158;48.750;9.078;2023-03-23T14:59:10;17.70;93.70
2300;DHT22;1158;48.750;9.078;2023-03-23T15:01:39;17.50;93.50
2300;DHT22;1158;48.750;9.078;2023-03-23T15:04:10;17.50;94.00
2300;DHT22;1158;48.750;9.078;2023-03-23T15:06:40;17.50;93.60
2300;DHT22;1158;48.750;9.078;2023-03-23T15:09:12;17.40;93.30
2300;DHT22;1158;48.750;9.078;2023-03-23T15:11:41;17.40;93.30
2300;DHT22;1158;48.750;9.078;2023-03-23T15:14:14;17.40;93.30
2300;DHT22;1158;48.750;9.078;2023-03-23T15:16:46;17.30;93.10
2300;DHT22;1158;48.750;9.078;2023-03-23T15:19:17;17.30;93.20
2300;DHT22;1158;48.750;9.078;2023-03-23T15:21:50;17.40;93.00
2300;DHT22;1158;48.750;9.078;2023-03-23T15:24:36;17.30;92.70
2300;DHT22;1158;48.750;9.078;2023-03-23T15:27:14;17.30;92.70
2300;DHT22;1158;48.750;9.078;2023-03-23T15:29:50;17.10;92.50
2300;DHT22;1158;48.750;9.078;2023-03-23T15:32:22;17.00;92.50
2300;DHT22;1158;48.750;9.078;2023-03-23T15:34:50;16.90;92.60
2300;DHT22;1158;48.750;9.078;2023-03-23T15:37:21;16.90;92.80
2300;DHT22;1158;48.750;9.078;2023-03-23T15:39:50;16.90;92.70
2300;DHT22;1158;48.750;9.078;2023-03-23T15:42:23;16.70;92.80
2300;DHT22;1158;48.750;9.078;2023-03-23T15:45:12;16.70;92.70
2300;DHT22;1158;48.750;9.078;2023-03-23T15:47:45;16.60;92.90
2300;DHT22;1158;48.750;9.078;2023-03-23T15:50:15;16.50;93.10
2300;DHT22;1158;48.750;9.078;2023-03-23T15:52:42;16.40;93.00
2300;DHT22;1158;48.750;9.078;2023-03-23T15:55:20;16.40;93.20
2300;DHT22;1158;48.750;9.078;2023-03-23T15:57:48;16.40;93.20
2300;DHT22;1158;48.750;9.078;2023-03-23T16:00:16;16.30;93.20
2300;DHT22;1158;48.750;9.078;2023-03-23T16:02:44;16.30;93.40
2300;DHT22;1158;48.750;9.078;2023-03-23T16:05:13;16.30;93.40
2300;DHT22;1158;48.750;9.078;2023-03-23T16:07:40;16.20;93.30
2300;DHT22;1158;48.750;9.078;2023-03-23T16:10:14;16.10;93.60
2300;DHT22;1158;48.750;9.078;2023-03-23T16:12:41;16.10;93.60
2300;DHT22;1158;48.750;9.078;2023-03-23T16:15:09;16.00;93.70
2300;DHT22;1158;48.750;9.078;2023-03-23T16:17:35;16.00;93.60
2300;DHT22;1158;48.750;9.078;2023-03-23T16:20:10;15.90;93.70
2300;DHT22;1158;48.750;9.078;2023-03-23T16:22:38;15.90;93.80
2300;DHT22;1158;48.750;9.078;2023-03-23T16:25:06;15.80;93.80
2300;DHT22;1158;48.750;9.078;2023-03-23T16:27:33;15.80;93.80
2300;DHT22;1158;48.750;9.078;2023-03-23T16:30:00;15.70;93.80